Gran Bretagna — IBFB — position and weather

sailwx.info

Track history (hours):
 
Tides and Currents Weather Stations Pressure Air Temp Water Temp Dewpoint Dewpoint Depression Visibility Wind Speed Wind Dir Waves Ship Positions

Gran Bretagna

Last reported at 2018-Feb-20 19:00 UTC. Time now 2018-Feb-20 19:20 UTC.
Position N 37°58' E 023°36'.

Length 184 m; draft 8.8 m.

Type: Cargo ship. MMSI: 247290000.

Date/timePositionNaut miles runAvg speedWind from/ knotsBaromVisibWave heightAir tempDewpointWater temp
2018-Feb-20 19:00N 37°58' E 023°36'2 4.8
2018-Feb-20 18:30N 37°55' E 023°37'4 8.2
2018-Feb-20 18:00N 37°51' E 023°39'714.7
2018-Feb-20 17:30N 37°45' E 023°43'815.9
2018-Feb-20 17:00N 37°38' E 023°47'1415.8
2018-Feb-20 16:06N 37°24' E 023°43'216.4
2018-Feb-20 16:00N 37°22' E 023°43'36915.2
2018-Feb-19 15:48N 37°50' E 015°58'517.6
2018-Feb-19 15:31N 37°50' E 015°52'917.9
2018-Feb-19 14:59N 37°53' E 015°40'816.7
2018-Feb-19 14:30N 38°00' E 015°36'918.1
2018-Feb-19 14:01N 38°09' E 015°35'1017.5
2018-Feb-19 13:26N 38°18' E 015°41'818.3
2018-Feb-19 13:00N 38°25' E 015°37'1018.4
2018-Feb-19 12:27N 38°35' E 015°32'817.9
2018-Feb-19 12:00N 38°42' E 015°29'917.8
2018-Feb-19 11:29N 38°51' E 015°24'1517.7
2018-Feb-19 10:40N 39°05' E 015°18'2017.9
2018-Feb-19 09:31N 39°24' E 015°09'016.6
2018-Feb-19 09:31N 39°24' E 015°09'2418.1
2018-Feb-19 08:10N 39°47' E 014°58'817.7
2018-Feb-19 07:44N 39°54' E 014°54'43 2.5
2018-Feb-18 14:39N 40°35' E 014°37'517.5
2018-Feb-18 14:23N 40°34' E 014°32'717.8
2018-Feb-18 14:00N 40°31' E 014°23'50717.2
2018-Feb-17 08:30N 39°01' E 003°34'1617.5
2018-Feb-17 07:36N 39°02' E 003°14'217.6
2018-Feb-17 07:29N 39°02' E 003°11'917.6
2018-Feb-17 06:58N 39°02' E 002°60'817.8
2018-Feb-17 06:30N 39°03' E 002°49'917.9
2018-Feb-17 06:00N 39°04' E 002°38'917.6
2018-Feb-17 05:30N 39°06' E 002°27'12414.7
2018-Feb-16 21:04N 39°26' W 000°12'1 9.3
2018-Feb-16 20:55N 39°26' W 000°14'4 8.6
2018-Feb-16 20:30N 39°26' W 000°18'1 1.0
2018-Feb-16 19:59N 39°27' W 000°18'0 0.0
2018-Feb-16 19:29N 39°27' W 000°18'0 0.0
2018-Feb-16 18:59N 39°27' W 000°18'0 0.0
2018-Feb-16 18:29N 39°27' W 000°18'0 0.0
2018-Feb-16 17:59N 39°27' W 000°18'0 0.0
2018-Feb-16 17:29N 39°27' W 000°18'0 0.0
2018-Feb-16 16:59N 39°27' W 000°18'0 0.0
2018-Feb-16 16:23N 39°27' W 000°18'0 0.0
2018-Feb-16 15:59N 39°27' W 000°18'0 0.0
2018-Feb-16 15:29N 39°27' W 000°18'0 0.0
2018-Feb-16 14:59N 39°27' W 000°18'0 0.0
2018-Feb-16 14:29N 39°27' W 000°18'0 0.0
2018-Feb-16 13:56N 39°27' W 000°18'0 0.0
2018-Feb-16 13:29N 39°27' W 000°18'0 0.0
2018-Feb-16 12:59N 39°27' W 000°18'0 0.0
2018-Feb-16 12:29N 39°27' W 000°18'0 0.0
2018-Feb-16 11:59N 39°27' W 000°18'0 0.0
2018-Feb-16 11:29N 39°27' W 000°18'0 0.0
2018-Feb-16 10:59N 39°27' W 000°18'0 0.0
2018-Feb-16 10:29N 39°27' W 000°18'0 0.0
2018-Feb-16 09:59N 39°27' W 000°18'0 0.0
2018-Feb-16 09:29N 39°27' W 000°18'0 0.0
2018-Feb-16 08:59N 39°27' W 000°18'0 0.0
2018-Feb-16 08:29N 39°27' W 000°18'0 0.0
2018-Feb-16 07:59N 39°27' W 000°18'0 0.0
2018-Feb-16 07:29N 39°27' W 000°18'0 0.0
2018-Feb-16 06:59N 39°27' W 000°18'0 0.0
2018-Feb-16 06:29N 39°27' W 000°18'0 0.0
2018-Feb-16 05:59N 39°27' W 000°18'0 0.0
2018-Feb-16 05:29N 39°27' W 000°18'0 0.0
2018-Feb-16 04:53N 39°27' W 000°18'0 1.2
2018-Feb-16 04:31N 39°26' W 000°18'3 6.3
2018-Feb-16 04:00N 39°25' W 000°15'4615.2
2018-Feb-16 00:57N 38°49' E 000°23'4914.8
2018-Feb-15 21:38N 38°05' W 000°04'218.1
2018-Feb-15 21:30N 38°03' W 000°05'918.4
2018-Feb-15 21:00N 37°55' W 000°12'1018.7
2018-Feb-15 20:30N 37°47' W 000°19'918.8
2018-Feb-15 20:00N 37°40' W 000°25'918.3
2018-Feb-15 19:30N 37°32' W 000°33'918.2
2018-Feb-15 19:00N 37°27' W 000°41'1017.7
2018-Feb-15 18:28N 37°20' W 000°50'2217.7
2018-Feb-15 17:13N 37°06' W 001°11'20217.4
2018-Feb-15 05:36N 36°01' W 005°09'319.8
2018-Feb-15 05:28N 36°00' W 005°13'919.8
2018-Feb-15 05:00N 35°59' W 005°24'2120.6
2018-Feb-15 04:00N 35°54' W 005°48'21415.4
2018-Feb-14 14:07N 37°32' W 009°45'3316.5
2018-Feb-14 12:06N 38°04' W 009°55'316.7
2018-Feb-14 11:57N 38°07' W 009°56'816.8
2018-Feb-14 11:27N 38°15' W 009°58'716.8
2018-Feb-14 11:00N 38°22' W 010°01'917.1
2018-Feb-14 10:30N 38°31' W 010°03'816.9
2018-Feb-14 10:00N 38°39' W 010°05'816.6
2018-Feb-14 09:30N 38°47' W 010°06'816.6
2018-Feb-14 09:00N 38°55' W 010°06'816.5
2018-Feb-14 08:30N 39°04' W 010°06'816.6
2018-Feb-14 08:00N 39°12' W 010°06'816.6
2018-Feb-14 07:30N 39°20' W 010°06'60314.8
2018-Feb-12 14:51N 48°54' W 005°48'614.2
2018-Feb-12 14:24N 48°58' W 005°40'8315.2
2018-Feb-12 08:58N 49°40' W 003°51'1016.6
2018-Feb-12 08:21N 49°45' W 003°38'616.2
2018-Feb-12 08:00N 49°48' W 003°31'815.7
2018-Feb-12 07:30N 49°52' W 003°20'815.5
2018-Feb-12 07:00N 49°55' W 003°09'815.4
2018-Feb-12 06:30N 49°59' W 002°58'815.0
2018-Feb-12 06:00N 50°01' W 002°47'714.7
2018-Feb-12 05:30N 50°03' W 002°36'1714.3
2018-Feb-12 04:19N 50°09' W 002°11'614.6
2018-Feb-12 03:54N 50°12' W 002°03'615.0
2018-Feb-12 03:30N 50°15' W 001°55'815.5
2018-Feb-12 03:00N 50°18' W 001°44'815.5
2018-Feb-12 02:30N 50°22' W 001°34'913.0
2018-Feb-12 01:48N 50°27' W 001°21'311.4
2018-Feb-12 01:30N 50°28' W 001°16'611.6
2018-Feb-12 01:00N 50°31' W 001°08'611.8
2018-Feb-12 00:30N 50°33' W 000°60'611.8
2018-Feb-12 00:00N 50°39' W 000°57'611.3
2018-Feb-11 23:30N 50°43' W 001°02'815.5
2018-Feb-11 23:01N 50°46' W 001°14'5 9.4
2018-Feb-11 22:31N 50°49' W 001°18'5 9.7
2018-Feb-11 22:00N 50°53' W 001°24'2 2.5
2018-Feb-11 21:24N 50°54' W 001°25'0 0.0
2018-Feb-11 20:54N 50°54' W 001°25'0 0.0
2018-Feb-11 20:27N 50°54' W 001°25'0 0.0
2018-Feb-11 19:57N 50°54' W 001°25'0 0.0
2018-Feb-11 19:27N 50°54' W 001°25'0 0.0
2018-Feb-11 18:57N 50°54' W 001°25'0 0.0
2018-Feb-11 18:27N 50°54' W 001°25'0 0.0
2018-Feb-11 18:00N 50°54' W 001°25'0 0.0
2018-Feb-11 17:30N 50°54' W 001°25'0 0.0
2018-Feb-11 17:00N 50°54' W 001°25'0 0.0
2018-Feb-11 16:30N 50°54' W 001°25'0 0.0
2018-Feb-11 16:00N 50°54' W 001°25'0 0.0
2018-Feb-11 15:30N 50°54' W 001°25'0 0.0
2018-Feb-11 15:00N 50°54' W 001°25'0 0.0
2018-Feb-11 14:30N 50°54' W 001°25'0 0.0
2018-Feb-11 14:00N 50°54' W 001°25'0 0.0
2018-Feb-11 13:30N 50°54' W 001°25'0 0.0
2018-Feb-11 13:00N 50°54' W 001°25'0 0.0
2018-Feb-11 12:30N 50°54' W 001°25'0 0.0
2018-Feb-11 12:00N 50°54' W 001°25'0 0.0
2018-Feb-11 11:30N 50°54' W 001°25'0 0.0
2018-Feb-11 11:00N 50°54' W 001°25'0 0.0
2018-Feb-11 10:27N 50°54' W 001°25'0 0.0
2018-Feb-11 09:57N 50°54' W 001°25'0 0.0
2018-Feb-11 09:27N 50°54' W 001°25'0 0.0
2018-Feb-11 08:54N 50°54' W 001°25'0 0.0
2018-Feb-11 08:27N 50°54' W 001°25'0 0.0
2018-Feb-11 07:57N 50°54' W 001°25'0 0.0
2018-Feb-11 07:24N 50°54' W 001°25'0 0.0
2018-Feb-11 06:57N 50°54' W 001°25'0 0.0
2018-Feb-11 06:27N 50°54' W 001°25'0 0.0
2018-Feb-11 05:57N 50°54' W 001°25'0 0.0
2018-Feb-11 05:27N 50°54' W 001°25'0 0.0
2018-Feb-11 04:57N 50°54' W 001°25'0 0.8
2018-Feb-11 04:29N 50°54' W 001°25'4 8.0
2018-Feb-11 04:00N 50°51' W 001°20'510.0
2018-Feb-11 03:31N 50°47' W 001°17'713.9
2018-Feb-11 03:01N 50°45' W 001°06'713.9
2018-Feb-11 02:31N 50°41' W 000°57'3 6.8
2018-Feb-11 02:00N 50°39' W 000°53'4 7.2
2018-Feb-11 01:30N 50°38' W 000°48'510.9
2018-Feb-11 01:00N 50°37' W 000°39'5 9.6
2018-Feb-11 00:30N 50°36' W 000°32'5 9.1
2018-Feb-11 00:00N 50°34' W 000°25'611.5
2018-Feb-10 23:30N 50°32' W 000°16'612.2
2018-Feb-10 23:00N 50°31' W 000°07'713.4
2018-Feb-10 22:30N 50°32' E 000°03'714.4
2018-Feb-10 22:00N 50°34' E 000°14'714.0
2018-Feb-10 21:30N 50°35' E 000°25'713.8
2018-Feb-10 21:00N 50°37' E 000°35'713.4
2018-Feb-10 20:30N 50°40' E 000°44'713.4
2018-Feb-10 20:01N 50°45' E 000°52'813.1
2018-Feb-10 19:26N 50°50' E 001°00'  
Track history (hours):
 
Tides and Currents Weather Stations Pressure Air Temp Water Temp Dewpoint Dewpoint Depression Visibility Wind Speed Wind Dir Waves Ship Positions

Gran Bretagna

Last reported at 2018-Feb-20 19:00 UTC. Time now 2018-Feb-20 19:20 UTC.
Position N 37°58' E 023°36'.

Length 184 m; draft 8.8 m.

Type: Cargo ship. MMSI: 247290000.

Date/timePositionNaut miles runAvg speedWind from/ knotsBaromVisibWave heightAir tempDewpointWater temp
2018-Feb-20 19:00N 37°58' E 023°36'2 4.8
2018-Feb-20 18:30N 37°55' E 023°37'4 8.2
2018-Feb-20 18:00N 37°51' E 023°39'714.7
2018-Feb-20 17:30N 37°45' E 023°43'815.9
2018-Feb-20 17:00N 37°38' E 023°47'1415.8
2018-Feb-20 16:06N 37°24' E 023°43'216.4
2018-Feb-20 16:00N 37°22' E 023°43'36915.2
2018-Feb-19 15:48N 37°50' E 015°58'517.6
2018-Feb-19 15:31N 37°50' E 015°52'917.9
2018-Feb-19 14:59N 37°53' E 015°40'816.7
2018-Feb-19 14:30N 38°00' E 015°36'918.1
2018-Feb-19 14:01N 38°09' E 015°35'1017.5
2018-Feb-19 13:26N 38°18' E 015°41'818.3
2018-Feb-19 13:00N 38°25' E 015°37'1018.4
2018-Feb-19 12:27N 38°35' E 015°32'817.9
2018-Feb-19 12:00N 38°42' E 015°29'917.8
2018-Feb-19 11:29N 38°51' E 015°24'1517.7
2018-Feb-19 10:40N 39°05' E 015°18'2017.9
2018-Feb-19 09:31N 39°24' E 015°09'016.6
2018-Feb-19 09:31N 39°24' E 015°09'2418.1
2018-Feb-19 08:10N 39°47' E 014°58'817.7
2018-Feb-19 07:44N 39°54' E 014°54'43 2.5
2018-Feb-18 14:39N 40°35' E 014°37'517.5
2018-Feb-18 14:23N 40°34' E 014°32'717.8
2018-Feb-18 14:00N 40°31' E 014°23'50717.2
2018-Feb-17 08:30N 39°01' E 003°34'1617.5
2018-Feb-17 07:36N 39°02' E 003°14'217.6
2018-Feb-17 07:29N 39°02' E 003°11'917.6
2018-Feb-17 06:58N 39°02' E 002°60'817.8
2018-Feb-17 06:30N 39°03' E 002°49'917.9
2018-Feb-17 06:00N 39°04' E 002°38'917.6
2018-Feb-17 05:30N 39°06' E 002°27'12414.7
2018-Feb-16 21:04N 39°26' W 000°12'1 9.3
2018-Feb-16 20:55N 39°26' W 000°14'4 8.6
2018-Feb-16 20:30N 39°26' W 000°18'1 1.0
2018-Feb-16 19:59N 39°27' W 000°18'0 0.0
2018-Feb-16 19:29N 39°27' W 000°18'0 0.0
2018-Feb-16 18:59N 39°27' W 000°18'0 0.0
2018-Feb-16 18:29N 39°27' W 000°18'0 0.0
2018-Feb-16 17:59N 39°27' W 000°18'0 0.0
2018-Feb-16 17:29N 39°27' W 000°18'0 0.0
2018-Feb-16 16:59N 39°27' W 000°18'0 0.0
2018-Feb-16 16:23N 39°27' W 000°18'0 0.0
2018-Feb-16 15:59N 39°27' W 000°18'0 0.0
2018-Feb-16 15:29N 39°27' W 000°18'0 0.0
2018-Feb-16 14:59N 39°27' W 000°18'0 0.0
2018-Feb-16 14:29N 39°27' W 000°18'0 0.0
2018-Feb-16 13:56N 39°27' W 000°18'0 0.0
2018-Feb-16 13:29N 39°27' W 000°18'0 0.0
2018-Feb-16 12:59N 39°27' W 000°18'0 0.0
2018-Feb-16 12:29N 39°27' W 000°18'0 0.0
2018-Feb-16 11:59N 39°27' W 000°18'0 0.0
2018-Feb-16 11:29N 39°27' W 000°18'0 0.0
2018-Feb-16 10:59N 39°27' W 000°18'0 0.0
2018-Feb-16 10:29N 39°27' W 000°18'0 0.0
2018-Feb-16 09:59N 39°27' W 000°18'0 0.0
2018-Feb-16 09:29N 39°27' W 000°18'0 0.0
2018-Feb-16 08:59N 39°27' W 000°18'0 0.0
2018-Feb-16 08:29N 39°27' W 000°18'0 0.0
2018-Feb-16 07:59N 39°27' W 000°18'0 0.0
2018-Feb-16 07:29N 39°27' W 000°18'0 0.0
2018-Feb-16 06:59N 39°27' W 000°18'0 0.0
2018-Feb-16 06:29N 39°27' W 000°18'0 0.0
2018-Feb-16 05:59N 39°27' W 000°18'0 0.0
2018-Feb-16 05:29N 39°27' W 000°18'0 0.0
2018-Feb-16 04:53N 39°27' W 000°18'0 1.2
2018-Feb-16 04:31N 39°26' W 000°18'3 6.3
2018-Feb-16 04:00N 39°25' W 000°15'4615.2
2018-Feb-16 00:57N 38°49' E 000°23'4914.8
2018-Feb-15 21:38N 38°05' W 000°04'218.1
2018-Feb-15 21:30N 38°03' W 000°05'918.4
2018-Feb-15 21:00N 37°55' W 000°12'1018.7
2018-Feb-15 20:30N 37°47' W 000°19'918.8
2018-Feb-15 20:00N 37°40' W 000°25'918.3
2018-Feb-15 19:30N 37°32' W 000°33'918.2
2018-Feb-15 19:00N 37°27' W 000°41'1017.7
2018-Feb-15 18:28N 37°20' W 000°50'2217.7
2018-Feb-15 17:13N 37°06' W 001°11'20217.4
2018-Feb-15 05:36N 36°01' W 005°09'319.8
2018-Feb-15 05:28N 36°00' W 005°13'919.8
2018-Feb-15 05:00N 35°59' W 005°24'2120.6
2018-Feb-15 04:00N 35°54' W 005°48'21415.4
2018-Feb-14 14:07N 37°32' W 009°45'3316.5
2018-Feb-14 12:06N 38°04' W 009°55'316.7
2018-Feb-14 11:57N 38°07' W 009°56'816.8
2018-Feb-14 11:27N 38°15' W 009°58'716.8
2018-Feb-14 11:00N 38°22' W 010°01'917.1
2018-Feb-14 10:30N 38°31' W 010°03'816.9
2018-Feb-14 10:00N 38°39' W 010°05'816.6
2018-Feb-14 09:30N 38°47' W 010°06'816.6
2018-Feb-14 09:00N 38°55' W 010°06'816.5
2018-Feb-14 08:30N 39°04' W 010°06'816.6
2018-Feb-14 08:00N 39°12' W 010°06'816.6
2018-Feb-14 07:30N 39°20' W 010°06'60314.8
2018-Feb-12 14:51N 48°54' W 005°48'614.2
2018-Feb-12 14:24N 48°58' W 005°40'8315.2
2018-Feb-12 08:58N 49°40' W 003°51'1016.6
2018-Feb-12 08:21N 49°45' W 003°38'616.2
2018-Feb-12 08:00N 49°48' W 003°31'815.7
2018-Feb-12 07:30N 49°52' W 003°20'815.5
2018-Feb-12 07:00N 49°55' W 003°09'815.4
2018-Feb-12 06:30N 49°59' W 002°58'815.0
2018-Feb-12 06:00N 50°01' W 002°47'714.7
2018-Feb-12 05:30N 50°03' W 002°36'1714.3
2018-Feb-12 04:19N 50°09' W 002°11'614.6
2018-Feb-12 03:54N 50°12' W 002°03'615.0
2018-Feb-12 03:30N 50°15' W 001°55'815.5
2018-Feb-12 03:00N 50°18' W 001°44'815.5
2018-Feb-12 02:30N 50°22' W 001°34'913.0
2018-Feb-12 01:48N 50°27' W 001°21'311.4
2018-Feb-12 01:30N 50°28' W 001°16'611.6
2018-Feb-12 01:00N 50°31' W 001°08'611.8
2018-Feb-12 00:30N 50°33' W 000°60'611.8
2018-Feb-12 00:00N 50°39' W 000°57'611.3
2018-Feb-11 23:30N 50°43' W 001°02'815.5
2018-Feb-11 23:01N 50°46' W 001°14'5 9.4
2018-Feb-11 22:31N 50°49' W 001°18'5 9.7
2018-Feb-11 22:00N 50°53' W 001°24'2 2.5
2018-Feb-11 21:24N 50°54' W 001°25'0 0.0
2018-Feb-11 20:54N 50°54' W 001°25'0 0.0
2018-Feb-11 20:27N 50°54' W 001°25'0 0.0
2018-Feb-11 19:57N 50°54' W 001°25'0 0.0
2018-Feb-11 19:27N 50°54' W 001°25'0 0.0
2018-Feb-11 18:57N 50°54' W 001°25'0 0.0
2018-Feb-11 18:27N 50°54' W 001°25'0 0.0
2018-Feb-11 18:00N 50°54' W 001°25'0 0.0
2018-Feb-11 17:30N 50°54' W 001°25'0 0.0
2018-Feb-11 17:00N 50°54' W 001°25'0 0.0
2018-Feb-11 16:30N 50°54' W 001°25'0 0.0
2018-Feb-11 16:00N 50°54' W 001°25'0 0.0
2018-Feb-11 15:30N 50°54' W 001°25'0 0.0
2018-Feb-11 15:00N 50°54' W 001°25'0 0.0
2018-Feb-11 14:30N 50°54' W 001°25'0 0.0
2018-Feb-11 14:00N 50°54' W 001°25'0 0.0
2018-Feb-11 13:30N 50°54' W 001°25'0 0.0
2018-Feb-11 13:00N 50°54' W 001°25'0 0.0
2018-Feb-11 12:30N 50°54' W 001°25'0 0.0
2018-Feb-11 12:00N 50°54' W 001°25'0 0.0
2018-Feb-11 11:30N 50°54' W 001°25'0 0.0
2018-Feb-11 11:00N 50°54' W 001°25'0 0.0
2018-Feb-11 10:27N 50°54' W 001°25'0 0.0
2018-Feb-11 09:57N 50°54' W 001°25'0 0.0
2018-Feb-11 09:27N 50°54' W 001°25'0 0.0
2018-Feb-11 08:54N 50°54' W 001°25'0 0.0
2018-Feb-11 08:27N 50°54' W 001°25'0 0.0
2018-Feb-11 07:57N 50°54' W 001°25'0 0.0
2018-Feb-11 07:24N 50°54' W 001°25'0 0.0
2018-Feb-11 06:57N 50°54' W 001°25'0 0.0
2018-Feb-11 06:27N 50°54' W 001°25'0 0.0
2018-Feb-11 05:57N 50°54' W 001°25'0 0.0
2018-Feb-11 05:27N 50°54' W 001°25'0 0.0
2018-Feb-11 04:57N 50°54' W 001°25'0 0.8
2018-Feb-11 04:29N 50°54' W 001°25'4 8.0
2018-Feb-11 04:00N 50°51' W 001°20'510.0
2018-Feb-11 03:31N 50°47' W 001°17'713.9
2018-Feb-11 03:01N 50°45' W 001°06'713.9
2018-Feb-11 02:31N 50°41' W 000°57'3 6.8
2018-Feb-11 02:00N 50°39' W 000°53'4 7.2
2018-Feb-11 01:30N 50°38' W 000°48'510.9
2018-Feb-11 01:00N 50°37' W 000°39'5 9.6
2018-Feb-11 00:30N 50°36' W 000°32'5 9.1
2018-Feb-11 00:00N 50°34' W 000°25'611.5
2018-Feb-10 23:30N 50°32' W 000°16'612.2
2018-Feb-10 23:00N 50°31' W 000°07'713.4
2018-Feb-10 22:30N 50°32' E 000°03'714.4
2018-Feb-10 22:00N 50°34' E 000°14'714.0
2018-Feb-10 21:30N 50°35' E 000°25'713.8
2018-Feb-10 21:00N 50°37' E 000°35'713.4
2018-Feb-10 20:30N 50°40' E 000°44'713.4
2018-Feb-10 20:01N 50°45' E 000°52'813.1
2018-Feb-10 19:26N 50°50' E 001°00'  

Dump ship's entire track history